MMTG/TGZ METAR and TAF weather

Enter ICAO airport designator
Station Type Date Time Source
MMTG METAR 2022/01/26 14:42 UTC NOAA

MMTG 261442Z 32006KT 5SM BKN080 24/18 A3008 RMK SLP154 52021 923 8/070 HZY


Station Type Date Time Source
MMTG Decoded METAR 2022/01/26 14:42 UTC NOAA

Tuxtla Gutierrez, Chis., Mexico (MMTG) 16-45N 093-07W
Jan 26, 2022 - 09:42 AM EST / 2022.01.26 1442 UTC
Wind: from the NW (320 degrees) at 7 MPH (6 KT):0
Visibility: 5 mile(s):0
Sky conditions: mostly cloudy
Temperature: 75 F (24 C)
Dew Point: 64 F (18 C)
Relative Humidity: 69%
Pressure (altimeter): 30.08 in. Hg (1018 hPa)
Pressure tendency: 0.06 inches (2.1 hPa) higher than three hours ago
ob: MMTG 261442Z 32006KT 5SM BKN080 24/18 A3008 RMK SLP154 52021 923 8/070 HZY
cycle: 14

Station Type Date Time Source
MMTG TAF 2022/01/26 06:42 UTC NOAA

TAF MMTG 260332Z 2606/2706 34006KT P6SM SKC
TEMPO 2611/2615 3SM BR HZ SCT015
FM261800 32014KT P6SM BKN030 BKN080
FM270500 34006KT P6SM SCT080

Example: see airport list